createdAt,value
2024-05-09T06:56:33.562Z,69.28
2024-05-09T07:08:45.251Z,68.50
2024-05-09T07:24:16.177Z,67.60
2024-05-09T07:26:43.348Z,67.55
2024-05-09T07:29:24.184Z,68.32
2024-05-09T07:31:53.639Z,67.62
2024-05-09T07:34:26.375Z,67.64
2024-05-09T07:36:56.703Z,65.86
2024-05-09T07:39:43.254Z,65.81
2024-05-09T07:45:14.735Z,65.29
2024-05-09T07:49:44.339Z,65.37
2024-05-09T07:53:43.374Z,64.55
2024-05-09T08:18:24.143Z,60.37
2024-05-09T08:20:55.535Z,59.46
2024-05-09T08:23:29.448Z,59.33
2024-05-09T08:37:54.323Z,55.28
2024-05-09T08:40:33.336Z,56.13
2024-05-09T08:43:11.582Z,58.25
2024-05-09T08:45:44.107Z,55.40
2024-05-09T08:48:17.506Z,55.25
2024-05-09T08:53:39.940Z,52.15
2024-05-09T08:59:05.749Z,50.60
2024-05-09T09:01:37.968Z,48.23
2024-05-09T09:04:17.156Z,51.54
2024-05-09T09:06:47.060Z,50.35
2024-05-09T09:09:21.994Z,49.32
2024-05-09T09:12:12.615Z,49.35
2024-05-09T09:14:47.426Z,49.05
2024-05-09T09:17:23.258Z,49.89
2024-05-09T09:20:14.408Z,47.05
2024-05-09T09:22:57.620Z,45.75
2024-05-09T09:25:38.006Z,46.51
2024-05-09T09:28:08.958Z,43.62
2024-05-09T09:30:48.759Z,44.01
2024-05-09T09:33:20.023Z,45.35
2024-05-09T09:35:55.094Z,43.74
2024-05-09T09:38:24.097Z,44.36
2024-05-09T09:41:05.320Z,44.11
2024-05-09T09:43:33.697Z,44.01
2024-05-09T09:46:16.727Z,43.62
2024-05-09T09:48:45.279Z,43.89
2024-05-09T09:51:18.282Z,45.01
2024-05-09T09:53:52.195Z,43.27
2024-05-09T09:56:33.031Z,45.14
2024-05-09T09:59:18.143Z,44.74
2024-05-09T10:01:50.591Z,44.02
2024-05-09T10:07:43.860Z,44.18
2024-05-09T10:10:54.284Z,43.95
2024-05-09T10:13:35.593Z,42.48
2024-05-09T10:16:12.463Z,44.64
2024-05-09T10:18:41.787Z,43.86
2024-05-09T10:21:28.909Z,44.13
2024-05-09T10:24:03.352Z,44.62
2024-05-09T10:26:38.857Z,44.32
2024-05-09T10:29:18.149Z,43.20
2024-05-09T10:32:08.023Z,42.48
2024-05-09T10:34:49.506Z,42.68
2024-05-09T10:37:25.030Z,42.83
2024-05-09T10:46:00.831Z,44.53
2024-05-09T10:54:24.983Z,43.46
2024-05-09T11:07:15.017Z,43.47
2024-05-09T11:13:05.404Z,43.11
2024-05-09T11:37:03.497Z,40.95
2024-05-09T11:39:45.957Z,41.13
2024-05-09T11:42:20.951Z,41.07
2024-05-09T11:47:38.309Z,39.70
2024-05-09T11:50:44.069Z,40.67
2024-05-09T11:56:21.847Z,41.99
2024-05-09T12:01:45.976Z,40.43
2024-05-09T12:04:18.944Z,38.66
2024-05-09T12:09:59.646Z,37.99
2024-05-09T12:12:37.554Z,39.05
2024-05-09T12:17:59.030Z,39.93
2024-05-09T12:20:39.136Z,38.86
2024-05-09T12:23:25.390Z,40.27
2024-05-09T12:26:15.998Z,39.84
2024-05-09T12:28:49.667Z,42.13
2024-05-09T12:31:33.567Z,39.92
2024-05-09T12:37:21.680Z,38.92
2024-05-09T12:39:58.706Z,39.69
2024-05-09T12:42:37.265Z,36.76
2024-05-09T12:45:10.098Z,38.65
2024-05-09T12:47:39.646Z,38.87
2024-05-09T12:50:21.790Z,38.39
2024-05-09T12:53:15.381Z,39.24
2024-05-09T12:58:52.317Z,38.82
2024-05-09T13:01:28.795Z,38.36
2024-05-09T13:04:00.234Z,38.60
2024-05-09T13:06:36.641Z,37.73
2024-05-09T13:09:04.807Z,38.53
2024-05-09T13:20:37.929Z,37.89
2024-05-09T13:23:16.032Z,37.40
2024-05-09T13:44:15.951Z,34.09
2024-05-09T13:47:36.321Z,31.55
2024-05-09T13:51:05.832Z,29.01
2024-05-09T14:08:20.602Z,35.35
2024-05-09T14:29:35.516Z,25.94
2024-05-09T15:21:52.700Z,22.91
2024-05-09T15:24:24.783Z,24.30
2024-05-09T15:27:02.664Z,23.95
2024-05-09T15:29:33.217Z,22.83
2024-05-09T15:32:15.026Z,22.52
2024-05-09T15:34:43.982Z,22.95
2024-05-09T15:37:33.710Z,22.40
2024-05-09T15:40:11.944Z,24.60
2024-05-09T15:42:47.960Z,23.68
2024-05-09T15:45:41.850Z,23.46
2024-05-09T15:48:18.285Z,23.12
2024-05-09T15:50:49.868Z,24.34
2024-05-09T15:53:34.401Z,28.18
2024-05-09T15:56:09.464Z,30.27
2024-05-09T15:58:38.363Z,31.79
2024-05-09T16:01:24.230Z,33.37
2024-05-09T16:03:56.847Z,35.47
2024-05-09T16:06:31.186Z,36.02
2024-05-09T16:09:05.066Z,36.30
2024-05-09T16:11:37.453Z,36.38
2024-05-09T16:14:05.420Z,35.06
2024-05-09T16:19:34.990Z,37.08
2024-05-09T16:22:05.218Z,36.08
2024-05-09T16:24:33.526Z,36.68
2024-05-09T16:27:08.539Z,36.67
2024-05-09T16:29:37.601Z,37.46
2024-05-09T16:32:09.443Z,37.88
2024-05-09T16:34:41.832Z,38.37
2024-05-09T16:37:13.205Z,37.98
2024-05-09T16:39:42.151Z,39.32
2024-05-09T16:42:18.118Z,38.65
2024-05-09T16:44:46.327Z,37.41
2024-05-09T16:47:17.953Z,38.12
2024-05-09T16:50:05.193Z,39.00
2024-05-09T16:52:38.395Z,37.75
2024-05-09T16:55:07.671Z,38.08
2024-05-09T16:57:40.865Z,38.84
2024-05-09T17:00:18.127Z,39.65
2024-05-09T17:02:57.335Z,38.73
2024-05-09T17:05:30.749Z,38.95
2024-05-09T17:08:09.040Z,39.08
2024-05-09T17:10:39.119Z,39.70
2024-05-09T17:13:11.606Z,38.59
2024-05-09T17:15:43.930Z,39.13
2024-05-09T17:18:11.845Z,39.63
2024-05-09T17:20:49.371Z,40.18
2024-05-09T17:23:19.310Z,39.80
2024-05-09T17:25:49.411Z,40.12
2024-05-09T17:28:17.071Z,40.26
2024-05-09T17:30:47.098Z,40.32
2024-05-09T17:33:15.065Z,41.15
2024-05-09T17:35:50.850Z,40.57
2024-05-09T17:38:19.712Z,40.47
2024-05-09T17:40:51.296Z,41.32
2024-05-09T17:43:18.602Z,40.89
2024-05-09T17:45:51.613Z,40.05
2024-05-09T17:48:19.817Z,41.09
2024-05-09T17:50:52.379Z,41.08
2024-05-09T17:53:23.362Z,41.04
2024-05-09T17:55:56.478Z,40.43
2024-05-09T17:58:26.207Z,40.20
2024-05-09T18:00:56.152Z,40.17
2024-05-09T18:03:25.806Z,41.10
2024-05-09T18:06:02.629Z,41.30
2024-05-09T18:08:37.795Z,40.79
2024-05-09T18:11:07.955Z,41.22
2024-05-09T18:13:35.147Z,41.78
2024-05-09T18:16:05.211Z,41.94
2024-05-09T18:18:34.377Z,41.84
2024-05-09T18:21:09.721Z,42.57
2024-05-09T18:23:40.509Z,43.07
2024-05-09T18:26:12.956Z,43.76
2024-05-09T18:28:43.526Z,44.50
2024-05-09T18:31:20.624Z,44.24
2024-05-09T18:33:48.948Z,44.73
2024-05-09T18:36:25.313Z,46.01
2024-05-09T18:38:59.405Z,46.24
2024-05-09T18:41:34.882Z,46.86
2024-05-09T18:44:04.263Z,46.60
2024-05-09T18:46:36.134Z,47.22
2024-05-09T18:49:04.426Z,47.35
2024-05-09T18:51:37.410Z,48.60
2024-05-09T18:54:07.817Z,49.86
2024-05-09T18:56:43.225Z,50.25
2024-05-09T18:59:11.010Z,50.24
2024-05-09T19:01:42.259Z,51.12
2024-05-09T19:04:09.921Z,51.07
2024-05-09T19:06:42.952Z,51.83
2024-05-09T19:09:11.187Z,51.85
2024-05-09T19:11:43.400Z,52.28
2024-05-09T19:14:11.366Z,51.41
2024-05-09T19:16:41.034Z,52.50
2024-05-09T19:19:10.166Z,53.30
2024-05-09T19:21:45.135Z,55.20
2024-05-09T19:24:14.903Z,56.76
2024-05-09T19:26:44.886Z,58.05
2024-05-09T19:29:12.207Z,58.72
2024-05-09T19:31:44.428Z,56.88
2024-05-09T19:34:12.552Z,58.09
2024-05-09T19:39:29.736Z,56.94
2024-05-09T19:42:03.284Z,57.16
2024-05-09T19:44:31.887Z,58.87
2024-05-09T19:47:08.090Z,59.78
2024-05-09T19:49:38.711Z,60.92
2024-05-09T19:52:19.273Z,62.35
2024-05-09T19:54:51.053Z,62.50
2024-05-09T19:57:21.754Z,64.60
2024-05-09T19:59:52.035Z,64.67
2024-05-09T20:02:23.039Z,65.67
2024-05-09T20:04:52.287Z,65.88
2024-05-09T20:07:27.424Z,66.22
2024-05-09T20:09:56.364Z,67.21
2024-05-09T20:12:28.956Z,67.93
2024-05-09T20:14:58.180Z,67.21
2024-05-09T20:17:29.582Z,66.63
2024-05-09T20:19:58.238Z,68.28
2024-05-09T20:22:34.817Z,68.83
2024-05-09T20:25:10.913Z,68.88
2024-05-09T20:27:42.410Z,69.37
2024-05-09T20:30:25.555Z,69.27
2024-05-09T20:33:24.728Z,73.15
2024-05-09T20:36:49.255Z,66.20
2024-05-09T20:39:25.669Z,67.29
2024-05-09T20:42:02.387Z,67.16
2024-05-09T20:44:33.306Z,66.46
2024-05-09T20:47:04.901Z,68.27
2024-05-09T20:49:38.940Z,69.49
2024-05-09T20:52:11.538Z,70.83
2024-05-09T20:54:49.778Z,70.83
2024-05-09T21:00:18.565Z,71.62
2024-05-09T21:02:55.928Z,73.37
2024-05-09T21:05:35.069Z,74.35
2024-05-09T21:08:22.746Z,74.86
2024-05-09T21:11:07.278Z,74.14
2024-05-09T21:13:37.675Z,72.23
2024-05-09T21:16:27.418Z,74.81
2024-05-09T21:19:02.894Z,77.89
2024-05-09T21:21:32.663Z,77.24
2024-05-09T21:24:03.751Z,77.56
2024-05-09T21:26:33.893Z,77.97
2024-05-09T21:29:13.131Z,78.81
2024-05-09T21:31:40.551Z,79.24
2024-05-09T21:34:14.542Z,79.72
2024-05-09T21:36:43.694Z,79.66
2024-05-09T21:39:20.575Z,79.08
2024-05-09T21:41:51.673Z,78.48
2024-05-09T21:44:24.290Z,78.03
2024-05-09T21:46:53.468Z,77.48
2024-05-09T21:49:25.050Z,75.52
2024-05-09T21:51:56.827Z,74.10
2024-05-09T21:54:34.424Z,72.89
2024-05-09T21:57:12.407Z,78.16
2024-05-09T21:59:44.987Z,78.42
2024-05-09T22:02:14.845Z,79.28
2024-05-09T22:04:51.478Z,76.04
2024-05-09T22:07:23.243Z,74.55
2024-05-09T22:34:19.623Z,79.37
2024-05-09T23:12:22.918Z,72.66
2024-05-09T23:14:51.582Z,73.22
2024-05-09T23:17:22.279Z,75.06
2024-05-09T23:19:50.487Z,75.90
2024-05-09T23:22:21.158Z,78.95
2024-05-09T23:24:48.857Z,79.29
2024-05-09T23:27:30.034Z,81.55
2024-05-09T23:30:00.554Z,81.26
2024-05-09T23:32:34.197Z,80.75
2024-05-09T23:35:01.701Z,81.14
2024-05-09T23:37:32.169Z,80.07
2024-05-09T23:40:09.756Z,80.41
2024-05-09T23:42:47.088Z,80.71
2024-05-09T23:45:15.353Z,80.88
2024-05-09T23:47:45.921Z,80.83
2024-05-09T23:50:20.371Z,81.54
2024-05-09T23:52:57.531Z,81.76
2024-05-09T23:55:31.678Z,81.12
2024-05-09T23:58:05.078Z,81.08
